• Join FlightAware (Why Join?)
  • Login
  • US Flag 
Gobble Gobble! 
07:13PM EST


 

Airport Tracker/Info


-or-


 

Live Flight TrackerFlight Track Log ✈ ATN540 ✈ 09-May-2012 ✈ KCOF - KWRI

Flight Track Log - Related Links

Times and Time Zones

All times are in EDT time to prevent confusion due to time zone crossing. See the ATN540 flight status page for this flight to view local times or setup timezone preferences in your user account.

Time Position Orientation Groundspeed Altitude Reporting Facility
EDT Latitude Longitude Course Direction KTS MPH feet Rate Location/Type
01:12PM 28.2167 -80.6167 270° West 163 188 800  Level Orlando TRACON
01:13PM 28.2167 -80.6500 270° West 199 229 2,500 2,460 Climbing Orlando TRACON
01:14PM 28.2167 -80.7167 300° West 257 296 5,100 3,300 Climbing Orlando TRACON
01:15PM 28.2500 -80.7833 332° Northwest 264 304 9,200 2,820 Climbing Orlando TRACON
01:16PM 28.3333 -80.8333 326° Northwest 338 389 10,800 1,920 Climbing Orlando TRACON
01:18PM 28.5344 -80.9856 318° Northwest 389 448 15,800 2,280 Climbing Jacksonville Center
01:19PM 28.6064 -81.0600 323° Northwest 369 425 18,600 1,920 Climbing Jacksonville Center
01:20PM 28.6908 -81.1317 326° Northwest 363 418 19,700 1,380 Climbing Jacksonville Center
01:21PM 28.7900 -81.2083 328° Northwest 398 458 21,400 1,620 Climbing Jacksonville Center
01:22PM 28.8933 -81.2825 353° North 416 479 23,000 1,080 Climbing Jacksonville Center
01:23PM 29.0186 -81.2994 351° North 431 496 23,600 1,260 Climbing Jacksonville Center
01:24PM 29.1442 -81.3211 353° North 453 521 25,600 1,980 Climbing Jacksonville Center
01:25PM 29.2675 -81.3381 350° North 446 513 27,600 1,860 Climbing Jacksonville Center
01:26PM 29.3889 -81.3625 353° North 440 506 29,400 1,380 Climbing Jacksonville Center
01:27PM 29.4956 -81.3775 352° North 440 506 30,400 960 Climbing Jacksonville Center
01:28PM 29.6211 -81.3969 352° North 440 506 31,400 1,200 Climbing Jacksonville Center
01:29PM 29.7464 -81.4167 352° North 447 514 32,800 780 Climbing Jacksonville Center
01:30PM 29.8742 -81.4386 352° North 452 520 33,000 60 Climbing Jacksonville Center
01:31PM 30.0058 -81.4606 352° North 465 535 33,000  Level Jacksonville Center
01:32PM 30.1333 -81.4803 352° North 465 535 33,000  Level Jacksonville Center
01:33PM 30.2736 -81.5022 359° North 460 529 33,000 300 Level Jacksonville Center
01:34PM 30.4031 -81.5053 North 465 535 33,600 1,260 Climbing Jacksonville Center
01:35PM 30.5364 -81.4936 North 465 535 35,600 2,340 Climbing Jacksonville Center
01:36PM 30.6658 -81.4844 North 470 541 38,300 2,520 Climbing Jacksonville Center
01:37PM 30.7889 -81.4756 North 465 535 40,700 1,320 Climbing Jacksonville Center
01:38PM 30.9142 -81.4639 North 450 518 41,000 60 Climbing Jacksonville Center
01:39PM 31.0456 -81.4547 North 450 518 40,900  Descending Jacksonville Center
01:40PM 31.1769 -81.4406 27° Northeast 464 534 41,100  Climbing Jacksonville Center
01:41PM 31.2950 -81.3706 35° Northeast 458 527 41,000 -60 Descending Jacksonville Center
01:42PM 31.3964 -81.2861 35° Northeast 481 554 41,000  Level Jacksonville Center
01:43PM 31.5161 -81.1867 35° Northeast 481 554 41,000  Level Jacksonville Center
01:44PM 31.6278 -81.0944 35° Northeast 486 559 41,000  Level Jacksonville Center
01:45PM 31.7392 -81.0042 35° Northeast 491 565 41,000  Level Jacksonville Center
01:46PM 31.8381 -80.9239 36° Northeast 481 554 41,000  Level Jacksonville Center
01:47PM 31.9453 -80.8336 34° Northeast 481 554 41,000  Level Jacksonville Center
01:48PM 32.0689 -80.7353 36° Northeast 481 554 41,000  Level Jacksonville Center
01:49PM 32.1656 -80.6519 35° Northeast 486 559 41,000  Level Jacksonville Center
01:50PM 32.2767 -80.5608 36° Northeast 486 559 41,000  Level Jacksonville Center
01:51PM 32.3875 -80.4669 36° Northeast 486 559 41,000  Level Jacksonville Center
01:52PM 32.4983 -80.3728 35° Northeast 486 559 41,000  Level Jacksonville Center
01:53PM 32.6256 -80.2656 36° Northeast 492 566 41,000  Level Jacksonville Center
01:54PM 32.7383 -80.1686 35° Northeast 492 566 41,000  Level Jacksonville Center
01:55PM 32.8533 -80.0711 33° Northeast 492 566 41,000  Level Jacksonville Center
01:56PM 32.9700 -79.9808 31° Northeast 497 572 41,000  Level Jacksonville Center
01:57PM 33.0914 -79.8950 31° Northeast 497 572 41,000  Level Jacksonville Center
01:58PM 33.2103 -79.8092 32° Northeast 497 572 41,000  Level Jacksonville Center
01:59PM 33.3269 -79.7206 31° Northeast 497 572 41,000  Level Jacksonville Center
02:00PM 33.4439 -79.6367 32° Northeast 497 572 41,000  Level Jacksonville Center
02:01PM 33.5606 -79.5503 32° Northeast 492 566 41,000  Level Jacksonville Center
02:02PM 33.6772 -79.4633 30° Northeast 492 566 41,000  Level Jacksonville Center
02:03PM 33.7817 -79.3919 33° Northeast 487 560 41,000  Level Jacksonville Center
02:04PM 33.8981 -79.3022 30° Northeast 487 560 41,000  Level Jacksonville Center
02:05PM 34.0144 -79.2197 32° Northeast 482 555 41,000  Level Jacksonville Center
02:08PM 34.2706 -79.0272 32° Northeast 488 562 41,000  Level Washington Center
02:09PM 34.3750 -78.9486 32° Northeast 488 562 41,000  Level Washington Center
02:10PM 34.4903 -78.8600 33° Northeast 488 562 41,000  Level Washington Center
02:11PM 34.6161 -78.7592 32° Northeast 488 562 41,000  Level Washington Center
02:12PM 34.7225 -78.6797 33° Northeast 493 567 41,000  Level Washington Center
02:13PM 34.8458 -78.5833 33° Northeast 488 562 41,000 -300 Level Washington Center
02:14PM 34.9631 -78.4914 32° Northeast 488 562 40,500 -660 Descending Washington Center
02:15PM 35.0692 -78.4114 33° Northeast 488 562 39,700 -960 Descending Washington Center
02:16PM 35.1861 -78.3189 32° Northeast 500 575 38,700 -1,020 Descending Washington Center
02:17PM 35.3092 -78.2264 33° Northeast 506 582 37,800 -960 Descending Washington Center
02:18PM 35.4281 -78.1333 32° Northeast 511 588 36,800 -1,020 Descending Washington Center
02:19PM 35.5489 -78.0403 33° Northeast 511 588 35,800 -960 Descending Washington Center
02:20PM 35.6697 -77.9442 32° Northeast 511 588 34,900 -960 Descending Washington Center
02:21PM 35.7861 -77.8556 33° Northeast 506 582 33,900 -1,020 Descending Washington Center
02:22PM 35.9069 -77.7589 39° Northeast 506 582 32,900 -480 Descending Washington Center
02:23PM 36.0131 -77.6514 52° Northeast 504 580 33,000  Climbing Washington Center
02:24PM 36.1011 -77.5122 54° Northeast 506 582 32,900  Descending Washington Center
02:25PM 36.1803 -77.3753 53° Northeast 506 582 33,000  Climbing Washington Center
02:26PM 36.2658 -77.2356 53° Northeast 501 577 33,000  Level Washington Center
02:27PM 36.3617 -77.0803 54° Northeast 501 577 33,000  Level Washington Center
02:28PM 36.4383 -76.9500 52° Northeast 507 583 33,000 -480 Level Washington Center
02:29PM 36.5317 -76.8017 52° Northeast 502 578 32,100 -960 Descending Washington Center
02:30PM 36.6186 -76.6606 53° Northeast 502 578 31,100 -1,020 Descending Washington Center
02:31PM 36.6989 -76.5269 55° Northeast 502 578 30,100 -900 Descending Washington Center
02:32PM 36.7667 -76.4061 52° Northeast 485 558 29,400 -600 Descending Washington Center
02:33PM 36.8572 -76.2589 35° Northeast 485 558 29,000 -240 Descending Washington Center
02:34PM 36.9706 -76.1586 22° Northeast 473 544 29,000  Level Washington Center
02:35PM 37.0917 -76.0969 26° Northeast 489 563 29,000  Level Washington Center
02:36PM 37.2256 -76.0144 27° Northeast 509 586 29,000  Level Washington Center
02:37PM 37.3572 -75.9314 27° Northeast 520 598 29,000  Level Washington Center
02:38PM 37.4867 -75.8483 27° Northeast 520 598 29,000  Level Washington Center
02:39PM 37.6161 -75.7647 26° Northeast 515 593 29,000 -420 Level Washington Center
02:40PM 37.7372 -75.6889 26° Northeast 504 580 28,200 -1,500 Descending Washington Center
02:41PM 37.8542 -75.6156 27° Northeast 481 554 26,000 -2,340 Descending Washington Center
02:42PM 37.9686 -75.5417 26° Northeast 464 534 23,500 -2,460 Descending Washington Center
02:43PM 38.0792 -75.4731 28° Northeast 451 519 21,100 -2,400 Descending Washington Center
02:44PM 38.1856 -75.4014 26° Northeast 438 504 18,700 -2,640 Descending Washington Center
02:45PM 38.2917 -75.3350 31° Northeast 426 490 16,000 -2,640 Descending Washington Center
02:46PM 38.4000 -75.2525 26° Northeast 419 482 13,600 -1,920 Descending Washington Center
02:47PM 38.4936 -75.1939 29° Northeast 392 451 12,100 -1,320 Descending Washington Center
02:48PM 38.5808 -75.1322 25° Northeast 364 419 11,000 -600 Descending Washington Center
02:49PM 38.6683 -75.0811 28° Northeast 343 395 11,000  Level Washington Center
02:50PM 38.7533 -75.0219 26° Northeast 343 395 11,000  Level Washington Center
02:51PM 38.8408 -74.9681 26° Northeast 343 395 11,000 -420 Level Washington Center
02:52PM 38.9217 -74.9167 28° Northeast 336 387 10,200 -900 Descending Washington Center
02:53PM 39.0006 -74.8625 26° Northeast 324 373 9,300 -960 Descending Washington Center
02:54PM 39.0733 -74.8164 35° Northeast 301 346 8,400 -1,140 Descending Washington Center
02:55PM 39.1375 -74.7594 26° Northeast 291 335 7,100 -720 Descending Washington Center
02:56PM 39.2039 -74.7183 North 273 314 7,000 -180 Descending Washington Center
02:57PM 39.2831 -74.7094 North 262 302 6,800 -660 Descending Washington Center
02:58PM 39.3581 -74.6978 North 268 308 5,800 -960 Descending Washington Center
02:59PM 39.4331 -74.6833 North 268 308 4,900 -960 Descending Washington Center
03:00PM 39.5036 -74.6744 North 268 308 3,900 -960 Descending Washington Center
03:01PM 39.5767 -74.6628 43° Northeast 268 308 3,000 -960 Descending Washington Center
03:08PM 40.0429 -74.0871 265° West  Level FlightAware Approximate
03:09PM 40.0326 -74.2456 263° West  Level FlightAware Approximate
03:10PM 40.0167 -74.4032 264° West  Level FlightAware Approximate
03:11PM 40.0038 -74.5603 296° West  Level FlightAware Approximate
03:12PM 40.0572 -74.7032 122° Southeast  Level Estimated
03:13PM 40.0000 -74.5833 338° Northwest  Level FlightAware Approximate
03:14PM 40.1126 -74.6440 158° South  Level Estimated
03:15PM 40.0000 -74.5833 338° Northwest  Level FlightAware Approximate
03:16PM 40.1126 -74.6440 158° South  Level Estimated
03:17PM 40.0000 -74.5833 338° Northwest  Level FlightAware Approximate
03:18PM 40.1126 -74.6440 158° South  Level Estimated
03:19PM 40.0000 -74.5833 338° Northwest  Level FlightAware Approximate
03:20PM 40.1126 -74.6440 158° South  Level Estimated
03:21PM 40.0000 -74.5833 338° Northwest  Level FlightAware Approximate
03:22PM 40.1126 -74.6440 158° South  Level Estimated
03:23PM 40.0000 -74.5833 338° Northwest  Level FlightAware Approximate
03:24PM 40.1126 -74.6440 158° South  Level Estimated
03:25PM 40.0000 -74.5833 158° South  Level FlightAware Approximate